createdAt,value
2022-12-27T00:01:23.110Z,3.30
2022-12-27T00:03:49.722Z,3.23
2022-12-27T00:06:21.135Z,3.23
2022-12-27T00:08:48.278Z,3.77
2022-12-27T00:11:18.215Z,3.80
2022-12-27T00:13:45.287Z,3.63
2022-12-27T00:16:14.453Z,3.33
2022-12-27T00:18:41.560Z,3.77
2022-12-27T00:21:10.534Z,3.80
2022-12-27T00:23:42.691Z,4.17
2022-12-27T00:26:40.945Z,4.10
2022-12-27T00:29:07.868Z,4.00
2022-12-27T00:31:34.571Z,4.17
2022-12-27T00:34:03.641Z,4.57
2022-12-27T00:36:31.477Z,4.17
2022-12-27T00:39:00.405Z,4.20
2022-12-27T00:41:27.341Z,4.47
2022-12-27T00:43:54.001Z,4.57
2022-12-27T00:46:20.625Z,4.73
2022-12-27T00:48:47.638Z,4.67
2022-12-27T00:51:19.882Z,5.60
2022-12-27T00:53:47.645Z,4.63
2022-12-27T00:56:20.572Z,6.00
2022-12-27T00:58:47.361Z,5.63
2022-12-27T01:01:22.193Z,4.97
2022-12-27T01:03:48.957Z,5.80
2022-12-27T01:06:21.568Z,5.83
2022-12-27T01:08:48.947Z,6.53
2022-12-27T01:11:16.844Z,5.57
2022-12-27T01:13:44.429Z,6.27
2022-12-27T01:16:12.358Z,6.20
2022-12-27T01:18:38.981Z,5.80
2022-12-27T01:21:10.079Z,5.43
2022-12-27T01:23:37.996Z,5.67
2022-12-27T01:26:08.614Z,4.83
2022-12-27T01:28:35.352Z,4.97
2022-12-27T01:31:10.961Z,5.40
2022-12-27T01:33:37.512Z,5.00
2022-12-27T01:36:18.269Z,4.70
2022-12-27T01:38:45.200Z,4.67
2022-12-27T01:41:54.274Z,4.63
2022-12-27T01:44:51.753Z,5.33
2022-12-27T01:47:49.070Z,5.40
2022-12-27T01:50:21.904Z,5.90
2022-12-27T01:53:00.608Z,5.93
2022-12-27T01:55:27.097Z,5.83
2022-12-27T01:57:58.690Z,6.40
2022-12-27T02:00:25.379Z,6.60
2022-12-27T02:02:52.777Z,6.90
2022-12-27T02:05:21.080Z,7.67
2022-12-27T02:07:53.365Z,7.47
2022-12-27T02:10:20.855Z,7.70
2022-12-27T02:12:47.628Z,7.80
2022-12-27T02:15:14.243Z,8.40
2022-12-27T02:17:40.788Z,7.93
2022-12-27T02:20:11.477Z,7.50
2022-12-27T02:22:59.624Z,7.87
2022-12-27T02:25:44.869Z,7.73
2022-12-27T02:28:33.159Z,7.93
2022-12-27T02:31:07.110Z,8.27
2022-12-27T02:33:41.172Z,7.87
2022-12-27T02:36:12.515Z,8.17
2022-12-27T02:38:48.155Z,8.17
2022-12-27T02:41:34.820Z,8.10
2022-12-27T02:44:20.110Z,7.57
2022-12-27T02:47:07.102Z,6.47
2022-12-27T02:50:01.004Z,5.97
2022-12-27T02:53:03.940Z,7.30
2022-12-27T02:56:11.138Z,6.70
2022-12-27T02:59:10.719Z,6.87
2022-12-27T03:02:17.876Z,6.60
2022-12-27T03:04:47.218Z,6.37
2022-12-27T03:07:32.749Z,6.57
2022-12-27T03:10:21.057Z,6.03
2022-12-27T03:13:14.842Z,7.40
2022-12-27T03:15:57.884Z,7.00
2022-12-27T03:18:43.230Z,7.87
2022-12-27T03:21:31.575Z,7.70
2022-12-27T03:24:18.218Z,7.97
2022-12-27T03:26:49.086Z,7.93
2022-12-27T03:29:38.500Z,7.50
2022-12-27T03:32:27.669Z,6.63
2022-12-27T03:35:24.942Z,7.40
2022-12-27T03:38:03.665Z,7.50
2022-12-27T03:41:03.958Z,8.30
2022-12-27T03:43:31.368Z,7.60
2022-12-27T03:46:34.577Z,7.73
2022-12-27T03:49:36.525Z,7.83
2022-12-27T03:52:23.008Z,8.37
2022-12-27T03:54:51.948Z,7.37
2022-12-27T03:57:22.422Z,7.47
2022-12-27T03:59:49.424Z,7.23
2022-12-27T04:02:16.692Z,7.70
2022-12-27T04:04:43.414Z,8.73
2022-12-27T04:07:13.157Z,8.40
2022-12-27T04:09:58.277Z,8.77
2022-12-27T04:12:43.363Z,8.63
2022-12-27T04:15:28.910Z,8.20
2022-12-27T04:18:14.105Z,8.10
2022-12-27T04:20:59.473Z,8.60
2022-12-27T04:23:44.594Z,7.80
2022-12-27T04:26:29.786Z,7.83
2022-12-27T04:29:15.503Z,8.00
2022-12-27T04:32:00.721Z,8.40
2022-12-27T04:34:43.792Z,8.80
2022-12-27T04:37:19.454Z,9.00
2022-12-27T04:40:06.299Z,9.10
2022-12-27T04:42:51.508Z,9.43
2022-12-27T04:45:36.330Z,9.47
2022-12-27T04:48:22.012Z,9.40
2022-12-27T04:51:07.219Z,9.63
2022-12-27T04:53:52.552Z,9.37
2022-12-27T04:56:19.074Z,8.67
2022-12-27T04:59:04.328Z,7.20
2022-12-27T05:01:49.597Z,9.20
2022-12-27T05:04:16.555Z,8.73
2022-12-27T05:06:43.211Z,9.80
2022-12-27T05:09:28.294Z,11.00
2022-12-27T05:12:13.423Z,11.50
2022-12-27T05:14:39.918Z,10.73
2022-12-27T05:17:06.490Z,10.23
2022-12-27T05:19:33.102Z,9.80
2022-12-27T05:22:18.037Z,8.40
2022-12-27T05:25:03.171Z,9.77
2022-12-27T05:27:29.718Z,9.93
2022-12-27T05:29:56.253Z,9.20
2022-12-27T05:32:22.820Z,9.77
2022-12-27T05:34:49.364Z,10.87
2022-12-27T05:37:15.962Z,10.10
2022-12-27T05:39:42.668Z,11.13
2022-12-27T05:42:09.239Z,10.63
2022-12-27T05:44:35.824Z,11.33
2022-12-27T05:47:02.535Z,11.50
2022-12-27T05:49:29.094Z,11.83
2022-12-27T05:51:55.634Z,11.03
2022-12-27T05:54:22.299Z,9.87
2022-12-27T05:56:49.000Z,10.70
2022-12-27T05:59:15.599Z,11.17
2022-12-27T06:01:42.875Z,12.13
2022-12-27T06:04:10.471Z,11.90
2022-12-27T06:06:36.983Z,12.10
2022-12-27T06:09:03.601Z,12.07
2022-12-27T06:11:30.278Z,13.40
2022-12-27T06:13:56.929Z,11.93
2022-12-27T06:16:23.679Z,11.13
2022-12-27T06:18:50.406Z,11.07
2022-12-27T06:21:19.763Z,10.70
2022-12-27T06:23:47.251Z,13.27
2022-12-27T06:26:26.616Z,12.23
2022-12-27T06:28:55.514Z,10.03
2022-12-27T06:31:23.019Z,11.40
2022-12-27T06:33:51.439Z,11.87
2022-12-27T06:36:23.808Z,11.37
2022-12-27T06:38:50.684Z,11.27
2022-12-27T06:41:18.883Z,12.50
2022-12-27T06:43:46.911Z,10.97
2022-12-27T06:46:17.724Z,11.17
2022-12-27T06:48:46.142Z,10.57
2022-12-27T06:51:13.823Z,11.83
2022-12-27T06:53:40.531Z,12.13
2022-12-27T06:56:12.451Z,9.40
2022-12-27T06:58:39.223Z,12.87
2022-12-27T07:01:20.627Z,19.27
2022-12-27T07:03:51.348Z,10.17
2022-12-27T07:06:18.535Z,11.67
2022-12-27T07:08:46.151Z,12.77
2022-12-27T07:11:13.924Z,12.40
2022-12-27T07:13:44.202Z,10.57
2022-12-27T07:16:13.161Z,12.80
2022-12-27T07:18:40.199Z,11.33
2022-12-27T07:21:15.401Z,11.60
2022-12-27T07:23:42.234Z,10.77
2022-12-27T07:26:12.829Z,11.17
2022-12-27T07:28:40.476Z,10.57
2022-12-27T07:31:12.729Z,11.17
2022-12-27T07:33:39.919Z,11.73
2022-12-27T07:36:10.512Z,12.77
2022-12-27T07:38:37.107Z,19.30
2022-12-27T07:41:03.949Z,11.70
2022-12-27T07:43:33.927Z,11.30
2022-12-27T07:46:14.961Z,11.23
2022-12-27T07:48:42.353Z,10.80
2022-12-27T07:51:09.737Z,10.93
2022-12-27T07:53:36.600Z,10.23
2022-12-27T07:56:12.251Z,9.20
2022-12-27T07:58:40.953Z,10.13
2022-12-27T08:01:08.774Z,15.63
2022-12-27T08:03:36.336Z,11.43
2022-12-27T08:06:03.576Z,12.20
2022-12-27T08:08:39.141Z,11.90
2022-12-27T08:11:06.503Z,14.20
2022-12-27T08:13:33.730Z,15.40
2022-12-27T08:16:00.940Z,12.23
2022-12-27T08:18:28.262Z,14.50
2022-12-27T08:20:55.170Z,12.30
2022-12-27T08:23:22.167Z,12.47
2022-12-27T08:25:49.240Z,12.63
2022-12-27T08:28:17.977Z,12.97
2022-12-27T08:30:47.158Z,17.97
2022-12-27T08:33:15.294Z,15.17
2022-12-27T08:35:54.347Z,12.50
2022-12-27T08:38:21.537Z,10.50
2022-12-27T08:40:48.119Z,11.50
2022-12-27T08:43:14.944Z,10.97
2022-12-27T08:45:42.055Z,11.00
2022-12-27T08:48:08.934Z,8.90
2022-12-27T08:50:35.840Z,9.13
2022-12-27T08:53:04.135Z,10.07
2022-12-27T08:55:31.089Z,10.23
2022-12-27T08:57:58.929Z,9.60
2022-12-27T09:00:26.573Z,9.73
2022-12-27T09:02:53.887Z,9.20
2022-12-27T09:05:22.091Z,9.70
2022-12-27T09:07:49.268Z,9.87
2022-12-27T09:10:16.009Z,9.17
2022-12-27T09:12:42.763Z,9.67
2022-12-27T09:15:09.787Z,9.83
2022-12-27T09:17:36.355Z,9.93
2022-12-27T09:20:03.425Z,9.40
2022-12-27T09:22:30.749Z,9.80
2022-12-27T09:24:57.426Z,9.50
2022-12-27T09:27:24.064Z,8.63
2022-12-27T09:29:50.676Z,8.03
2022-12-27T09:32:17.236Z,8.43
2022-12-27T09:34:43.885Z,7.90
2022-12-27T09:37:11.488Z,7.73
2022-12-27T09:39:38.219Z,13.40
2022-12-27T09:45:26.174Z,9.53
2022-12-27T09:48:03.498Z,9.13
2022-12-27T09:50:47.537Z,7.10
2022-12-27T09:53:24.821Z,6.83
2022-12-27T09:55:58.012Z,21.20
2022-12-27T09:58:36.550Z,9.73
2022-12-27T10:01:12.438Z,7.73
2022-12-27T10:03:39.042Z,6.53
2022-12-27T10:06:37.872Z,6.20
2022-12-27T10:09:16.229Z,6.47
2022-12-27T10:11:58.613Z,6.07
2022-12-27T10:14:47.167Z,6.00
2022-12-27T10:17:22.665Z,6.10
2022-12-27T10:20:04.660Z,4.97
2022-12-27T10:22:41.190Z,5.50
2022-12-27T10:25:13.369Z,5.50
2022-12-27T10:27:41.724Z,5.93
2022-12-27T10:30:29.464Z,5.57
2022-12-27T10:32:56.256Z,6.50
2022-12-27T10:35:24.270Z,5.40
2022-12-27T10:37:50.928Z,6.50
2022-12-27T10:40:20.281Z,5.27
2022-12-27T10:42:59.575Z,5.40
2022-12-27T10:45:39.381Z,5.37
2022-12-27T10:48:19.695Z,5.43
2022-12-27T10:51:05.254Z,5.37
2022-12-27T10:53:34.602Z,5.20
2022-12-27T10:56:16.747Z,5.13
2022-12-27T10:58:58.592Z,4.77
2022-12-27T11:01:30.328Z,5.13
2022-12-27T11:04:21.138Z,4.43
2022-12-27T11:07:13.599Z,4.93
2022-12-27T11:09:50.712Z,5.03
2022-12-27T11:12:28.663Z,4.97
2022-12-27T11:15:01.483Z,4.47
2022-12-27T11:17:49.041Z,5.17
2022-12-27T11:20:26.995Z,5.40
2022-12-27T11:22:59.702Z,4.80
2022-12-27T11:25:28.356Z,5.00
2022-12-27T11:28:02.023Z,6.10
2022-12-27T11:30:40.131Z,5.70
2022-12-27T11:33:46.576Z,4.93
2022-12-27T11:36:16.034Z,4.87
2022-12-27T11:38:44.921Z,4.00
2022-12-27T11:41:27.549Z,4.63
2022-12-27T11:44:26.634Z,4.40
2022-12-27T11:47:01.785Z,4.70
2022-12-27T11:49:37.902Z,5.50
2022-12-27T11:52:13.597Z,4.10
2022-12-27T11:55:17.676Z,3.77
2022-12-27T11:58:11.992Z,4.40
2022-12-27T12:01:02.061Z,4.40
2022-12-27T12:03:52.875Z,4.70
2022-12-27T12:06:56.351Z,4.63
2022-12-27T12:09:38.343Z,5.60
2022-12-27T12:12:42.515Z,4.27
2022-12-27T12:15:36.837Z,3.90
2022-12-27T12:18:26.383Z,3.80
2022-12-27T12:21:18.331Z,4.20
2022-12-27T12:24:09.999Z,4.33
2022-12-27T12:27:24.535Z,3.67
2022-12-27T12:30:13.544Z,3.90
2022-12-27T12:33:08.117Z,3.80
2022-12-27T12:35:46.546Z,2.97
2022-12-27T12:38:21.452Z,3.77
2022-12-27T12:41:06.710Z,3.10
2022-12-27T12:43:45.584Z,3.80
2022-12-27T12:46:32.826Z,3.00
2022-12-27T12:49:14.477Z,3.45
2022-12-27T12:51:46.828Z,19.02
2022-12-27T12:54:31.805Z,13.95
2022-12-27T12:57:28.608Z,9.70
2022-12-27T13:00:19.803Z,7.55
2022-12-27T13:03:20.417Z,8.57
2022-12-27T13:06:10.286Z,6.72
2022-12-27T13:08:39.513Z,37.90
2022-12-27T13:11:24.901Z,72.88
2022-12-27T13:14:02.342Z,25.65
2022-12-27T13:16:55.802Z,45.65
2022-12-27T13:19:50.185Z,33.60
2022-12-27T13:22:27.477Z,11.02
2022-12-27T13:25:15.210Z,54.95
2022-12-27T13:27:48.087Z,8.07
2022-12-27T13:30:22.903Z,4.95
2022-12-27T13:33:07.599Z,4.00
2022-12-27T13:35:48.901Z,4.80
2022-12-27T13:38:38.641Z,4.18
2022-12-27T13:41:11.014Z,4.82
2022-12-27T13:44:18.695Z,4.67
2022-12-27T13:46:47.999Z,3.65
2022-12-27T13:50:08.531Z,5.18
2022-12-27T13:53:00.019Z,6.40
2022-12-27T13:55:51.955Z,26.80
2022-12-27T13:58:36.437Z,7.55
2022-12-27T14:01:17.796Z,6.05
2022-12-27T14:03:44.356Z,6.97
2022-12-27T14:06:39.508Z,10.38
2022-12-27T14:09:16.409Z,7.22
2022-12-27T14:12:07.101Z,5.90
2022-12-27T14:14:38.053Z,6.90
2022-12-27T14:17:25.919Z,5.17
2022-12-27T14:20:07.492Z,3.35
2022-12-27T14:23:25.502Z,3.27
2022-12-27T14:26:08.195Z,3.15
2022-12-27T14:28:59.280Z,3.40
2022-12-27T14:31:53.977Z,3.00
2022-12-27T14:34:35.709Z,3.23
2022-12-27T14:37:19.660Z,2.80
2022-12-27T14:40:13.972Z,3.20
2022-12-27T14:43:16.030Z,3.03
2022-12-27T14:46:16.938Z,3.47
2022-12-27T14:48:55.564Z,3.40
2022-12-27T14:52:06.108Z,3.83
2022-12-27T14:54:48.345Z,3.87
2022-12-27T14:57:33.484Z,3.37
2022-12-27T15:00:15.869Z,3.87
2022-12-27T15:03:00.778Z,3.67
2022-12-27T15:05:48.508Z,3.70
2022-12-27T15:08:58.160Z,3.80
2022-12-27T15:11:48.939Z,3.63
2022-12-27T15:14:40.269Z,3.90
2022-12-27T15:17:18.632Z,3.97
2022-12-27T15:20:15.972Z,3.70
2022-12-27T15:23:13.249Z,4.10
2022-12-27T15:26:01.314Z,4.00
2022-12-27T15:29:05.111Z,3.87
2022-12-27T15:31:59.536Z,4.03
2022-12-27T15:35:03.484Z,4.50
2022-12-27T15:37:48.360Z,5.00
2022-12-27T15:40:32.994Z,5.57
2022-12-27T15:43:20.520Z,5.37
2022-12-27T15:46:36.061Z,5.63
2022-12-27T15:49:06.300Z,6.33
2022-12-27T15:51:44.707Z,5.87
2022-12-27T15:54:32.812Z,5.80
2022-12-27T15:57:17.220Z,5.97
2022-12-27T15:59:47.603Z,6.27
2022-12-27T16:02:53.648Z,5.63
2022-12-27T16:05:20.353Z,10.33
2022-12-27T16:07:51.020Z,57.63
2022-12-27T16:10:32.498Z,29.83
2022-12-27T16:12:59.219Z,45.83
2022-12-27T16:15:43.309Z,28.10
2022-12-27T16:18:31.106Z,9.20
2022-12-27T16:21:14.067Z,9.40
2022-12-27T16:23:46.487Z,15.70
2022-12-27T16:26:15.940Z,7.77
2022-12-27T16:28:51.838Z,7.87
2022-12-27T16:31:45.568Z,8.17
2022-12-27T16:34:28.513Z,6.30
2022-12-27T16:36:58.345Z,6.40
2022-12-27T16:39:49.899Z,7.27
2022-12-27T16:42:23.597Z,7.17
2022-12-27T16:45:02.869Z,6.37
2022-12-27T16:47:46.761Z,7.90
2022-12-27T16:50:19.361Z,6.80
2022-12-27T16:52:57.376Z,5.73
2022-12-27T16:55:40.704Z,7.80
2022-12-27T16:58:23.493Z,5.47
2022-12-27T17:00:52.697Z,6.20
2022-12-27T17:03:22.223Z,6.43
2022-12-27T17:06:30.209Z,5.43
2022-12-27T17:08:36.980Z,5.60
2022-12-27T17:11:23.865Z,6.20
2022-12-27T17:13:57.179Z,4.67
2022-12-27T17:16:28.478Z,5.87
2022-12-27T17:19:08.311Z,5.40
2022-12-27T17:21:37.758Z,28.07
2022-12-27T17:24:21.306Z,6.53
2022-12-27T17:27:12.533Z,5.30
2022-12-27T17:29:45.087Z,6.60
2022-12-27T17:32:36.481Z,6.30
2022-12-27T17:35:18.187Z,11.73
2022-12-27T17:38:06.165Z,5.43
2022-12-27T17:40:41.904Z,8.10
2022-12-27T17:43:54.978Z,5.17
2022-12-27T17:46:28.906Z,8.97
2022-12-27T17:48:58.087Z,6.00
2022-12-27T17:51:28.255Z,6.00
2022-12-27T17:54:14.312Z,5.83
2022-12-27T17:57:14.089Z,5.73
2022-12-27T17:59:46.651Z,5.77
2022-12-27T18:02:24.949Z,5.67
2022-12-27T18:04:57.055Z,5.80
2022-12-27T18:07:29.668Z,6.37
2022-12-27T18:10:17.104Z,7.17
2022-12-27T18:12:46.612Z,7.13
2022-12-27T18:15:17.032Z,7.53
2022-12-27T18:17:49.650Z,7.53
2022-12-27T18:20:29.723Z,7.23
2022-12-27T18:23:02.139Z,7.47
2022-12-27T18:25:40.497Z,7.17
2022-12-27T18:28:33.783Z,6.77
2022-12-27T18:31:00.753Z,6.67
2022-12-27T18:33:34.364Z,7.07
2022-12-27T18:36:03.187Z,7.90
2022-12-27T18:38:38.964Z,7.77
2022-12-27T18:41:12.548Z,7.63
2022-12-27T18:43:45.077Z,7.33
2022-12-27T18:46:29.983Z,7.20
2022-12-27T18:48:57.376Z,6.83
2022-12-27T18:51:37.652Z,7.93
2022-12-27T18:54:29.917Z,7.03
2022-12-27T18:56:57.725Z,7.77
2022-12-27T18:59:32.429Z,6.87
2022-12-27T19:02:23.284Z,6.57
2022-12-27T19:05:23.824Z,6.93
2022-12-27T19:08:10.997Z,13.87
2022-12-27T19:10:46.156Z,18.23
2022-12-27T19:13:34.120Z,19.50
2022-12-27T19:16:01.062Z,47.33
2022-12-27T19:18:31.626Z,12.30
2022-12-27T19:21:01.036Z,24.10
2022-12-27T19:23:36.548Z,33.10
2022-12-27T19:26:15.305Z,13.60
2022-12-27T19:28:45.518Z,72.90
2022-12-27T19:31:21.537Z,29.47
2022-12-27T19:33:52.122Z,14.53
2022-12-27T19:36:30.302Z,13.40
2022-12-27T19:38:57.383Z,12.30
2022-12-27T19:41:24.871Z,9.10
2022-12-27T19:43:51.719Z,12.90
2022-12-27T19:46:19.226Z,10.00
2022-12-27T19:49:07.687Z,9.93
2022-12-27T19:51:32.735Z,10.10
2022-12-27T19:53:59.402Z,11.30
2022-12-27T19:56:26.086Z,9.40
2022-12-27T19:58:52.760Z,8.43
2022-12-27T20:01:19.372Z,8.07
2022-12-27T20:03:46.188Z,6.60
2022-12-27T20:06:22.848Z,6.97
2022-12-27T20:08:53.289Z,7.33
2022-12-27T20:11:22.372Z,6.20
2022-12-27T20:13:50.127Z,10.90
2022-12-27T20:16:18.869Z,6.20
2022-12-27T20:18:46.227Z,6.03
2022-12-27T20:21:14.271Z,8.67
2022-12-27T20:23:41.092Z,6.93
2022-12-27T20:26:08.326Z,9.13
2022-12-27T20:28:34.887Z,8.30
2022-12-27T20:31:10.047Z,15.80
2022-12-27T20:33:36.872Z,8.83
2022-12-27T20:36:04.107Z,8.70
2022-12-27T20:38:31.619Z,9.90
2022-12-27T20:41:09.966Z,7.73
2022-12-27T20:43:36.793Z,7.07
2022-12-27T20:46:08.598Z,6.70
2022-12-27T20:48:40.471Z,7.10
2022-12-27T20:51:15.780Z,7.27
2022-12-27T20:53:42.467Z,6.57
2022-12-27T20:56:10.188Z,6.80
2022-12-27T20:58:36.972Z,6.60
2022-12-27T21:01:12.652Z,7.20
2022-12-27T21:03:39.801Z,5.83
2022-12-27T21:06:10.520Z,6.13
2022-12-27T21:08:45.541Z,5.90
2022-12-27T21:11:19.895Z,6.60
2022-12-27T21:13:47.753Z,6.67
2022-12-27T21:16:17.253Z,6.17
2022-12-27T21:18:43.922Z,7.90
2022-12-27T21:21:18.986Z,6.93
2022-12-27T21:23:46.307Z,7.20
2022-12-27T21:26:14.586Z,7.17
2022-12-27T21:28:42.268Z,7.20
2022-12-27T21:31:10.059Z,7.53
2022-12-27T21:33:36.746Z,8.60
2022-12-27T21:36:07.251Z,8.47
2022-12-27T21:38:34.126Z,8.23
2022-12-27T21:41:22.046Z,9.67
2022-12-27T21:43:49.563Z,10.30
2022-12-27T21:46:29.069Z,8.30
2022-12-27T21:49:01.828Z,8.67
2022-12-27T21:51:30.104Z,8.00
2022-12-27T21:53:57.373Z,8.80
2022-12-27T21:56:24.781Z,9.00
2022-12-27T21:58:51.708Z,10.87
2022-12-27T22:01:20.763Z,7.93
2022-12-27T22:03:50.110Z,11.53
2022-12-27T22:06:17.995Z,10.63
2022-12-27T22:08:46.984Z,11.30
2022-12-27T22:11:14.459Z,10.23
2022-12-27T22:13:42.479Z,12.77
2022-12-27T22:16:16.864Z,16.47
2022-12-27T22:18:45.100Z,15.57
2022-12-27T22:21:14.819Z,14.20
2022-12-27T22:23:47.052Z,13.13
2022-12-27T22:26:19.693Z,10.20
2022-12-27T22:28:46.974Z,10.57
2022-12-27T22:31:15.805Z,8.90
2022-12-27T22:33:42.471Z,8.90
2022-12-27T22:36:12.731Z,10.10
2022-12-27T22:38:40.697Z,10.87
2022-12-27T22:41:10.327Z,8.83
2022-12-27T22:43:36.863Z,10.70
2022-12-27T22:46:13.434Z,13.33
2022-12-27T22:48:40.959Z,13.73
2022-12-27T22:51:13.262Z,9.93
2022-12-27T22:53:40.583Z,10.00
2022-12-27T22:56:14.575Z,12.53
2022-12-27T22:58:41.338Z,13.17
2022-12-27T23:01:22.297Z,14.10
2022-12-27T23:03:49.719Z,17.33
2022-12-27T23:06:17.081Z,13.77
2022-12-27T23:08:44.773Z,15.60
2022-12-27T23:11:20.632Z,12.60
2022-12-27T23:13:48.925Z,19.00
2022-12-27T23:16:15.658Z,33.23
2022-12-27T23:18:42.312Z,47.43
2022-12-27T23:21:21.092Z,38.37
2022-12-27T23:23:53.513Z,70.90
2022-12-27T23:26:22.627Z,18.57
2022-12-27T23:28:51.372Z,37.67
2022-12-27T23:31:19.925Z,50.60
2022-12-27T23:33:46.697Z,28.00
2022-12-27T23:36:14.536Z,56.73
2022-12-27T23:38:42.349Z,50.00
2022-12-27T23:41:18.620Z,24.53
2022-12-27T23:43:54.464Z,68.10
2022-12-27T23:46:23.962Z,55.50
2022-12-27T23:48:51.288Z,105.93
2022-12-27T23:51:18.595Z,44.17
2022-12-27T23:53:45.401Z,69.30
2022-12-27T23:56:21.264Z,61.63
2022-12-27T23:58:48.753Z,107.30
